Time;durP1;ratioP1;P1;durP2;ratioP2;P2;SDS_P1;SDS_P2;PMS_P1;PMS_P2;Temp;Humidity;BMP_temperature;BMP_pressure;BME280_temperature;BME280_humidity;BME280_pressure;Samples;Min_cycle;Max_cycle;Signal;HPM_P1;HPM_P2
2022/01/25 00:10:39;;;;;;;81.93;34.70;;;;;;;-6.71;61.09;102457.41;18367823;32;20108;-67
2022/01/25 00:31:09;;;;;;;74.97;32.50;;;;;;;-7.31;62.90;102456.38;18366414;32;20107;-67
2022/01/25 00:41:13;;;;;;;65.93;29.90;;;;;;;-7.49;62.81;102456.28;18365941;32;20697;-67
2022/01/25 01:01:41;;;;;;;66.77;28.23;;;;;;;-7.17;61.43;102440.94;18365126;32;20089;-66
2022/01/25 01:11:52;;;;;;;60.17;27.27;;;;;;;-7.35;61.65;102432.34;18364042;32;20102;-67
2022/01/25 01:32:42;;;;;;;61.27;27.80;;;;;;;-7.76;62.58;102406.09;18364145;32;20113;-67
2022/01/25 01:43:05;;;;;;;59.43;28.07;;;;;;;-8.00;64.54;102402.81;18365713;32;20101;-67
2022/01/25 01:53:10;;;;;;;60.33;29.93;;;;;;;-7.66;62.60;102386.94;18371789;32;20179;-67
2022/01/25 02:03:13;;;;;;;59.30;27.17;;;;;;;-7.84;64.45;102379.94;18371032;32;20646;-67
2022/01/25 02:13:18;;;;;;;53.40;26.70;;;;;;;-7.61;63.02;102364.59;18370842;32;20098;-67
2022/01/25 02:23:25;;;;;;;49.77;24.80;;;;;;;-8.22;63.52;102363.41;18370620;32;20112;-67
2022/01/25 02:33:29;;;;;;;60.53;26.67;;;;;;;-7.89;63.50;102351.59;18370266;32;20112;-67
2022/01/25 02:43:34;;;;;;;43.73;23.00;;;;;;;-7.83;62.87;102321.75;18369979;32;20093;-67
2022/01/25 02:53:38;;;;;;;50.03;21.63;;;;;;;-7.62;61.81;102321.28;18369998;32;20097;-67
2022/01/25 03:03:43;;;;;;;45.47;21.67;;;;;;;-7.88;63.00;102316.97;18369802;32;20174;-66
2022/01/25 03:13:51;;;;;;;48.13;24.03;;;;;;;-8.08;62.45;102303.12;18369477;32;20094;-67
2022/01/25 03:23:56;;;;;;;53.87;23.83;;;;;;;-8.06;63.79;102305.81;18369271;32;20151;-66
2022/01/25 03:33:59;;;;;;;39.67;20.77;;;;;;;-7.98;63.98;102288.13;18369732;32;20467;-67
2022/01/25 03:44:05;;;;;;;39.20;19.07;;;;;;;-7.58;62.72;102272.69;18368342;32;20156;-67
2022/01/25 03:54:08;;;;;;;48.00;21.43;;;;;;;-7.43;62.38;102256.44;18368164;32;20104;-66
2022/01/25 04:04:16;;;;;;;43.47;21.07;;;;;;;-7.27;64.23;102250.37;18367388;32;20433;-67
2022/01/25 04:14:19;;;;;;;50.90;24.17;;;;;;;-6.34;62.17;102233.09;18367397;32;20125;-67
2022/01/25 04:24:56;;;;;;;47.40;22.70;;;;;;;-6.21;64.62;102219.91;18366782;32;20088;-67
2022/01/25 04:35:11;;;;;;;51.23;21.20;;;;;;;-5.66;63.74;102208.00;18366193;32;20086;-67
2022/01/25 04:55:43;;;;;;;52.10;22.53;;;;;;;-5.27;64.01;102174.22;18365662;32;20104;-67
2022/01/25 05:05:56;;;;;;;46.90;21.73;;;;;;;-5.27;64.93;102158.03;18364935;32;20085;-68
2022/01/25 05:16:04;;;;;;;59.80;27.13;;;;;;;-4.62;64.31;102153.59;18365587;32;20094;-68
2022/01/25 05:26:09;;;;;;;56.30;25.30;;;;;;;-4.69;65.05;102162.34;18372310;32;20087;-68
2022/01/25 05:36:13;;;;;;;53.13;25.23;;;;;;;-4.42;65.11;102145.16;18371654;32;20094;-67
2022/01/25 05:46:20;;;;;;;59.13;26.80;;;;;;;-4.23;65.01;102139.97;18371753;32;20094;-67
2022/01/25 05:56:23;;;;;;;96.40;39.63;;;;;;;-3.97;64.91;102125.13;18371564;32;20085;-68
2022/01/25 06:06:29;;;;;;;60.43;25.97;;;;;;;-3.91;64.60;102125.63;18371201;32;20088;-68
2022/01/25 06:16:33;;;;;;;54.07;25.13;;;;;;;-3.68;63.43;102119.03;18371231;32;20393;-68
2022/01/25 06:26:37;;;;;;;59.77;25.87;;;;;;;-3.73;64.29;102115.19;18370670;32;20140;-68
2022/01/25 06:36:40;;;;;;;51.43;28.07;;;;;;;-3.89;65.17;102113.88;18371219;32;20123;-68
2022/01/25 06:46:46;;;;;;;59.90;28.50;;;;;;;-3.59;64.92;102112.13;18370112;32;20137;-68
2022/01/25 06:56:49;;;;;;;56.47;25.93;;;;;;;-3.65;65.61;102121.81;18370683;32;20090;-68
2022/01/25 07:06:54;;;;;;;50.40;24.40;;;;;;;-3.18;63.67;102102.62;18369444;32;20143;-68
2022/01/25 07:16:57;;;;;;;53.17;26.37;;;;;;;-3.09;63.71;102108.47;18369122;32;20097;-68
2022/01/25 07:27:02;;;;;;;89.30;26.27;;;;;;;-2.48;62.88;102103.91;18369066;32;20089;-68
2022/01/25 07:37:05;;;;;;;63.43;30.77;;;;;;;-1.91;60.78;102093.72;18367888;32;20097;-68
2022/01/25 07:47:18;;;;;;;58.27;26.30;;;;;;;-2.34;62.33;102101.53;18368430;32;20097;-68
2022/01/25 07:57:24;;;;;;;66.43;31.80;;;;;;;-1.96;62.20;102103.59;18367698;32;20727;-68
2022/01/25 08:07:29;;;;;;;46.67;22.57;;;;;;;-1.86;62.00;102093.28;18367251;32;20111;-68
2022/01/25 08:17:46;;;;;;;48.17;23.10;;;;;;;-1.65;61.47;102077.75;18367937;32;20695;-68
2022/01/25 08:28:05;;;;;;;49.80;22.93;;;;;;;-1.15;60.55;102068.53;18168137;32;20149;-68
2022/01/25 08:38:32;;;;;;;52.53;25.67;;;;;;;-0.84;60.08;102073.31;17980761;33;20123;-69
2022/01/25 08:48:53;;;;;;;41.37;22.13;;;;;;;-0.40;58.33;102077.25;17979674;33;20158;-68
2022/01/25 08:59:14;;;;;;;45.83;21.83;;;;;;;-0.26;58.25;102052.53;18037865;32;20121;-69
2022/01/25 09:09:20;;;;;;;43.00;20.97;;;;;;;0.03;56.83;102045.91;18233052;32;20093;-68
2022/01/25 09:19:23;;;;;;;52.10;23.37;;;;;;;0.13;56.23;102048.31;18372081;32;20113;-68
2022/01/25 09:29:28;;;;;;;51.40;22.52;;;;;;;0.64;55.43;102040.47;18371950;32;20434;-71
2022/01/25 09:39:31;;;;;;;43.65;20.73;;;;;;;1.09;55.02;102027.00;18371753;32;20120;-69
2022/01/25 09:49:36;;;;;;;45.95;22.50;;;;;;;1.50;53.58;102023.53;18371345;32;20112;-68
2022/01/25 09:59:39;;;;;;;43.42;22.10;;;;;;;1.32;53.63;102006.97;18371134;32;20093;-67
2022/01/25 10:09:44;;;;;;;43.08;22.85;;;;;;;2.30;52.18;101987.84;18370326;32;20100;-69
2022/01/25 10:19:47;;;;;;;47.00;23.27;;;;;;;2.36;52.44;101962.41;18370317;32;20136;-69
2022/01/25 10:29:52;;;;;;;42.58;21.95;;;;;;;3.08;51.53;101952.50;18370531;32;20400;-69
2022/01/25 10:39:55;;;;;;;49.38;23.77;;;;;;;3.08;51.98;101960.25;18369959;32;20093;-69
2022/01/25 10:50:00;;;;;;;48.22;22.27;;;;;;;3.40;51.50;101946.47;18369618;32;20398;-69
2022/01/25 11:00:09;;;;;;;49.40;21.98;;;;;;;3.61;51.17;101932.94;18369944;32;20116;-69
2022/01/25 11:10:21;;;;;;;45.70;22.15;;;;;;;4.28;49.72;101926.75;18369659;32;20134;-70
2022/01/25 11:20:24;;;;;;;42.38;22.95;;;;;;;4.50;49.60;101904.50;18368379;32;20073;-70
2022/01/25 11:30:29;;;;;;;34.55;16.73;;;;;;;5.17;48.87;101881.63;18369008;32;20093;-70
2022/01/25 11:40:37;;;;;;;31.45;16.40;;;;;;;5.17;49.43;101858.31;18368485;32;20430;-70
2022/01/25 11:50:44;;;;;;;27.30;13.70;;;;;;;5.41;49.71;101865.34;18368410;32;20157;-70
2022/01/25 12:00:49;;;;;;;32.05;14.05;;;;;;;5.90;49.54;101848.38;18367929;32;20217;-71
2022/01/25 12:11:05;;;;;;;20.58;10.35;;;;;;;5.31;52.55;101842.47;18367300;32;20093;-71
2022/01/25 12:21:08;;;;;;;22.35;11.05;;;;;;;5.24;54.07;101834.44;18367313;32;20183;-71
2022/01/25 12:31:17;;;;;;;24.52;11.77;;;;;;;5.71;53.55;101819.97;18363008;32;20090;-71
2022/01/25 12:41:21;;;;;;;27.37;13.10;;;;;;;5.70;53.72;101826.84;18363435;32;74638;-71
2022/01/25 12:51:28;;;;;;;30.50;13.70;;;;;;;5.78;53.36;101811.59;18365626;32;20371;-71
2022/01/25 13:01:32;;;;;;;25.42;12.02;;;;;;;5.27;55.42;101797.44;18365129;32;20369;-71
2022/01/25 13:11:46;;;;;;;28.60;12.82;;;;;;;5.44;55.19;101769.66;18364289;32;20343;-71
2022/01/25 13:21:53;;;;;;;25.98;13.43;;;;;;;5.64;54.92;101757.50;18363595;32;20095;-71
2022/01/25 13:32:16;;;;;;;30.25;14.23;;;;;;;5.45;55.89;101742.06;18363122;32;20097;-71
2022/01/25 13:42:26;;;;;;;32.40;15.27;;;;;;;5.63;55.06;101723.75;18369457;32;20120;-71
2022/01/25 13:52:32;;;;;;;27.20;12.43;;;;;;;6.00;54.11;101713.94;18372230;32;20085;-71
2022/01/25 14:02:35;;;;;;;28.92;14.63;;;;;;;6.25;52.32;101695.91;18371308;32;20104;-71
2022/01/25 14:23:21;;;;;;;22.75;11.38;;;;;;;6.38;51.68;101697.22;18370483;32;20093;-72
2022/01/25 14:33:28;;;;;;;42.45;20.33;;;;;;;6.53;50.91;101691.69;18370142;32;20097;-71
2022/01/25 14:43:33;;;;;;;35.08;15.73;;;;;;;6.31;51.45;101702.16;18369988;32;20086;-71
2022/01/25 14:53:39;;;;;;;31.92;15.85;;;;;;;6.15;51.96;101704.16;18369650;32;20088;-71
2022/01/25 15:03:44;;;;;;;29.37;15.20;;;;;;;6.04;52.49;101708.97;18368992;32;20089;-72
2022/01/25 15:13:51;;;;;;;29.58;15.00;;;;;;;5.60;53.61;101716.78;18365002;32;20085;-71
2022/01/25 15:23:55;;;;;;;33.03;16.00;;;;;;;5.36;54.57;101714.97;18368339;32;20504;-71
2022/01/25 15:33:59;;;;;;;37.38;17.00;;;;;;;5.02;55.91;101710.97;18368587;32;20097;-71
2022/01/25 15:44:06;;;;;;;33.35;16.12;;;;;;;4.91;56.26;101714.81;18368600;32;20375;-71
2022/01/25 15:54:11;;;;;;;41.50;20.65;;;;;;;4.75;56.45;101716.78;18367684;32;20473;-72
2022/01/25 16:04:14;;;;;;;45.12;21.62;;;;;;;4.23;58.73;101725.72;18366263;32;20101;-72
2022/01/25 16:14:19;;;;;;;37.42;18.00;;;;;;;4.08;59.02;101725.88;18367064;32;20124;-72
2022/01/25 16:24:22;;;;;;;38.70;20.12;;;;;;;4.39;58.84;101712.63;18367037;32;20101;-72
2022/01/25 16:34:27;;;;;;;80.72;39.50;;;;;;;4.49;58.44;101713.94;18366396;32;20098;-72
2022/01/25 16:44:30;;;;;;;38.25;19.52;;;;;;;4.37;58.65;101721.16;18366550;32;20101;-72
2022/01/25 16:54:37;;;;;;;42.28;22.17;;;;;;;4.12;58.88;101720.91;18366253;32;20112;-72
2022/01/25 17:05:00;;;;;;;46.80;21.60;;;;;;;3.84;59.72;101734.25;18366280;32;20481;-72
2022/01/25 17:15:07;;;;;;;57.50;28.73;;;;;;;3.51;60.33;101712.06;18369585;32;20343;-72
2022/01/25 17:25:11;;;;;;;79.32;47.25;;;;;;;3.54;61.11;101707.03;18372852;32;20129;-72
2022/01/25 17:35:16;;;;;;;52.55;28.98;;;;;;;3.26;62.41;101712.59;18372217;32;20406;-72
2022/01/25 17:45:20;;;;;;;52.50;24.50;;;;;;;3.13;62.70;101713.69;18371851;32;20089;-72
2022/01/25 17:55:24;;;;;;;39.03;18.45;;;;;;;3.46;63.40;101713.53;18371637;32;20101;-72
2022/01/25 18:05:27;;;;;;;45.80;21.30;;;;;;;3.97;64.14;101717.63;18371452;32;20113;-72
2022/01/25 18:15:33;;;;;;;49.15;24.30;;;;;;;4.28;63.34;101704.41;18371528;32;20188;-72
2022/01/25 18:25:51;;;;;;;94.72;42.42;;;;;;;4.50;60.38;101702.75;18371499;32;20113;-72
2022/01/25 18:35:56;;;;;;;49.05;24.58;;;;;;;4.22;61.35;101710.97;18370369;32;20346;-72
2022/01/25 18:46:05;;;;;;;50.80;25.08;;;;;;;4.31;60.89;101703.63;18370297;32;20081;-72
2022/01/25 18:56:11;;;;;;;49.08;25.70;;;;;;;4.20;61.30;101713.53;18370161;32;20445;-72
2022/01/25 19:06:15;;;;;;;42.75;22.05;;;;;;;3.84;63.34;101711.00;18369460;32;20172;-72
2022/01/25 19:16:20;;;;;;;41.65;21.83;;;;;;;4.11;62.02;101697.59;18369316;32;20097;-72
2022/01/25 19:26:23;;;;;;;46.53;21.90;;;;;;;3.93;63.10;101700.22;18368533;32;20714;-72
2022/01/25 19:36:28;;;;;;;57.47;34.88;;;;;;;3.77;63.77;101690.87;18367686;32;20109;-72
2022/01/25 19:46:31;;;;;;;49.53;22.37;;;;;;;4.13;62.68;101690.78;18368789;32;20104;-72
2022/01/25 19:56:37;;;;;;;44.05;22.80;;;;;;;4.10;62.93;101690.66;18368550;32;20101;-72
2022/01/25 20:06:42;;;;;;;53.00;26.30;;;;;;;4.29;62.13;101682.00;18368141;32;20107;-72
2022/01/25 20:16:50;;;;;;;47.80;25.67;;;;;;;4.62;61.82;101688.59;18367712;32;20111;-72
2022/01/25 20:27:01;;;;;;;40.88;21.25;;;;;;;4.46;61.88;101693.12;18367243;32;20098;-72
2022/01/25 20:37:05;;;;;;;;;;;;;;;4.72;61.30;101698.50;18366327;32;20121;-72
2022/01/25 20:47:09;;;;;;;46.50;21.37;;;;;;;4.28;62.39;101691.50;18366172;32;19972;-72
2022/01/25 20:57:14;;;;;;;46.95;22.25;;;;;;;4.18;63.03;101701.34;18366683;32;20097;-72
2022/01/25 21:07:38;;;;;;;48.08;22.58;;;;;;;3.95;63.17;101708.94;18333672;32;20106;-73
2022/01/25 21:18:04;;;;;;;49.35;23.77;;;;;;;3.50;63.62;101715.47;18301630;32;20367;-72
2022/01/25 21:28:27;;;;;;;51.85;25.90;;;;;;;3.17;64.44;101711.31;18301037;32;20098;-72
2022/01/25 21:38:52;;;;;;;54.85;25.80;;;;;;;2.96;64.71;101708.56;18299961;32;20090;-72
2022/01/25 21:48:55;;;;;;;47.20;24.35;;;;;;;2.45;64.76;101695.66;18298841;32;20133;-72
2022/01/25 21:58:59;;;;;;;69.03;29.35;;;;;;;2.12;64.52;101691.37;18300713;32;20112;-71
2022/01/25 22:09:06;;;;;;;56.63;26.90;;;;;;;1.71;65.58;101698.66;18307792;32;20090;-71
2022/01/25 22:19:10;;;;;;;87.60;37.17;;;;;;;1.70;65.70;101703.72;18307362;32;20659;-72
2022/01/25 22:29:14;;;;;;;79.93;35.90;;;;;;;1.55;66.55;101712.34;18329620;32;20111;-71
2022/01/25 22:39:18;;;;;;;73.73;34.57;;;;;;;1.31;66.66;101711.84;18370696;32;20207;-71
2022/01/25 22:49:41;;;;;;;78.80;33.55;;;;;;;1.10;66.66;101697.87;18370510;32;20112;-71
2022/01/25 22:59:46;;;;;;;77.07;36.47;;;;;;;1.17;66.13;101698.22;18370274;32;20504;-71
2022/01/25 23:09:49;;;;;;;73.27;34.07;;;;;;;0.78;66.83;101699.44;18369859;32;20089;-71
2022/01/25 23:19:58;;;;;;;73.37;36.50;;;;;;;0.81;66.05;101689.38;18370427;32;20090;-71
2022/01/25 23:30:11;;;;;;;78.10;33.33;;;;;;;0.59;66.51;101684.63;18369104;32;20366;-71
2022/01/25 23:40:22;;;;;;;70.60;31.90;;;;;;;0.64;66.00;101667.78;18368596;32;20127;-71
2022/01/25 23:50:31;;;;;;;71.43;31.63;;;;;;;0.27;66.85;101681.00;18369675;32;20145;-71
